Time;durP1;ratioP1;P1;durP2;ratioP2;P2;SDS_P1;SDS_P2;PMS_P1;PMS_P2;Temp;Humidity;BMP_temperature;BMP_pressure;BME280_temperature;BME280_humidity;BME280_pressure;Samples;Min_cycle;Max_cycle;Signal;HPM_P1;HPM_P2
2022/04/05 00:02:21;;;;;;;3.55;3.25;;;;;;;8.69;100.00;99591.66;8287941;28;20476;-64
2022/04/05 00:06:22;;;;;;;4.32;3.58;;;;;;;8.69;100.00;99591.66;8290361;28;20080;-64
2022/04/05 00:10:22;;;;;;;3.67;3.15;;;;;;;8.66;100.00;99587.38;8290746;28;20033;-64
2022/04/05 00:14:23;;;;;;;3.50;3.20;;;;;;;8.64;100.00;99588.53;8289819;28;20095;-64
2022/04/05 00:18:23;;;;;;;3.35;3.05;;;;;;;8.64;100.00;99586.72;8287790;28;20034;-64
2022/04/05 00:22:24;;;;;;;3.63;3.17;;;;;;;8.72;100.00;99580.56;8299703;28;20549;-65
2022/04/05 00:26:24;;;;;;;4.05;3.65;;;;;;;8.71;100.00;99584.25;8302933;28;20065;-65
2022/04/05 00:30:25;;;;;;;3.50;3.15;;;;;;;8.69;100.00;99586.25;8322003;28;20423;-64
2022/04/05 00:34:25;;;;;;;4.40;4.00;;;;;;;8.69;100.00;99589.78;8321744;28;20531;-65
2022/04/05 00:38:25;;;;;;;4.85;4.05;;;;;;;8.64;100.00;99583.16;8301145;28;20048;-64
2022/04/05 00:42:26;;;;;;;6.18;4.30;;;;;;;8.67;100.00;99582.84;8303412;28;20034;-65
2022/04/05 00:46:26;;;;;;;4.18;3.78;;;;;;;8.67;100.00;99577.47;8302480;28;20039;-65
2022/04/05 00:50:27;;;;;;;4.38;3.97;;;;;;;8.64;100.00;99578.63;8307451;28;20038;-65
2022/04/05 00:54:30;;;;;;;5.07;4.40;;;;;;;8.64;100.00;99577.78;8288013;28;20562;-65
2022/04/05 00:58:32;;;;;;;5.78;5.10;;;;;;;8.70;100.00;99577.16;8288550;28;20038;-65
2022/04/05 01:02:37;;;;;;;5.07;4.57;;;;;;;8.74;100.00;99579.41;8285932;28;20046;-64
2022/04/05 01:06:39;;;;;;;5.82;5.22;;;;;;;8.76;100.00;99576.56;8286346;28;20053;-64
2022/04/05 01:10:42;;;;;;;7.70;5.40;;;;;;;8.82;100.00;99570.56;8285408;28;20050;-64
2022/04/05 01:14:42;;;;;;;8.55;5.82;;;;;;;8.87;100.00;99568.22;8296423;28;20120;-64
2022/04/05 01:18:42;;;;;;;6.40;5.65;;;;;;;8.87;100.00;99574.47;8286350;28;20606;-64
2022/04/05 01:22:50;;;;;;;6.93;6.15;;;;;;;8.91;100.00;99558.88;8316946;28;20116;-64
2022/04/05 01:26:52;;;;;;;9.13;5.88;;;;;;;8.97;100.00;99571.72;8303732;28;20034;-65
2022/04/05 01:30:53;;;;;;;8.70;7.80;;;;;;;8.98;100.00;99565.31;8319828;28;20041;-65
2022/04/05 01:34:55;;;;;;;9.20;7.63;;;;;;;9.01;100.00;99565.03;8321661;28;20045;-65
2022/04/05 01:38:55;;;;;;;8.38;7.22;;;;;;;9.02;100.00;99572.09;8300349;28;20045;-65
2022/04/05 01:42:56;;;;;;;8.68;7.15;;;;;;;9.03;100.00;99573.81;8321672;28;20041;-65
2022/04/05 01:46:56;;;;;;;9.43;7.68;;;;;;;9.05;100.00;99566.41;8321065;28;20109;-65
2022/04/05 01:50:57;;;;;;;9.60;7.50;;;;;;;9.09;100.00;99565.94;8313952;28;20076;-65
2022/04/05 01:54:57;;;;;;;12.05;7.60;;;;;;;9.11;100.00;99571.16;8311241;28;20052;-65
2022/04/05 01:58:59;;;;;;;9.32;7.63;;;;;;;9.13;100.00;99563.78;8311080;28;20048;-65
2022/04/05 02:03:00;;;;;;;10.85;7.80;;;;;;;9.15;100.00;99564.50;8297112;28;20193;-65
2022/04/05 02:07:00;;;;;;;9.50;7.70;;;;;;;9.19;100.00;99560.47;8286656;28;20705;-65
2022/04/05 02:11:00;;;;;;;11.10;8.65;;;;;;;9.22;100.00;99563.72;8279484;28;20050;-65
2022/04/05 02:15:01;;;;;;;11.40;9.03;;;;;;;9.23;100.00;99561.84;8280621;28;20052;-65
2022/04/05 02:19:02;;;;;;;13.48;9.13;;;;;;;9.29;100.00;99558.53;8281575;28;20292;-65
2022/04/05 02:23:02;;;;;;;16.88;12.18;;;;;;;9.31;100.00;99551.16;8261683;28;20564;-65
2022/04/05 02:27:03;;;;;;;15.32;11.60;;;;;;;9.38;100.00;99558.44;8316137;28;20669;-65
2022/04/05 02:31:04;;;;;;;20.75;13.55;;;;;;;9.50;100.00;99567.13;8268790;28;20082;-65
2022/04/05 02:35:05;;;;;;;18.83;13.27;;;;;;;9.50;100.00;99551.81;8288305;28;20081;-65
2022/04/05 02:39:06;;;;;;;22.15;13.50;;;;;;;9.46;100.00;99560.38;8285534;28;20042;-65
2022/04/05 02:43:07;;;;;;;19.50;13.10;;;;;;;9.49;100.00;99554.66;8293210;28;21009;-65
2022/04/05 02:47:07;;;;;;;18.48;12.60;;;;;;;9.53;100.00;99556.03;8281364;28;20066;-65
2022/04/05 02:51:08;;;;;;;22.45;12.15;;;;;;;9.51;100.00;99563.41;8291243;28;20046;-65
2022/04/05 02:55:09;;;;;;;19.30;12.60;;;;;;;9.56;100.00;99547.63;8289391;28;20052;-65
2022/04/05 02:59:09;;;;;;;19.48;13.02;;;;;;;9.57;100.00;99542.06;8283220;28;20084;-65
2022/04/05 03:03:09;;;;;;;20.73;14.23;;;;;;;9.76;100.00;99551.81;8289045;28;20061;-65
2022/04/05 03:07:10;;;;;;;24.35;16.33;;;;;;;9.86;100.00;99537.19;8289129;28;20513;-65
2022/04/05 03:11:11;;;;;;;24.55;15.55;;;;;;;10.02;100.00;99547.22;8290344;28;20049;-65
2022/04/05 03:15:11;;;;;;;24.55;16.90;;;;;;;10.09;100.00;99553.72;8317601;28;20112;-65
2022/04/05 03:19:12;;;;;;;26.77;16.90;;;;;;;10.17;100.00;99544.81;8288211;28;20462;-65
2022/04/05 03:23:12;;;;;;;24.27;15.73;;;;;;;10.22;100.00;99548.72;8291824;28;20516;-65
2022/04/05 03:27:13;;;;;;;26.67;16.05;;;;;;;10.22;100.00;99553.28;8284877;28;20042;-65
2022/04/05 03:31:13;;;;;;;23.65;15.65;;;;;;;10.26;100.00;99550.09;8282103;28;20530;-65
2022/04/05 03:35:14;;;;;;;24.80;15.65;;;;;;;10.28;100.00;99547.22;8285930;28;20407;-65
2022/04/05 03:39:14;;;;;;;26.50;16.25;;;;;;;10.29;100.00;99544.38;8285647;28;20053;-65
2022/04/05 03:43:15;;;;;;;31.08;17.85;;;;;;;10.34;100.00;99533.91;8292268;28;20042;-65
2022/04/05 03:47:15;;;;;;;26.40;15.60;;;;;;;10.38;100.00;99545.22;8289550;28;20458;-65
2022/04/05 03:51:16;;;;;;;28.10;16.13;;;;;;;10.38;100.00;99542.53;8281172;28;20042;-65
2022/04/05 03:55:16;;;;;;;24.80;16.38;;;;;;;10.43;100.00;99551.81;8290986;28;20041;-65
2022/04/05 03:59:16;;;;;;;28.17;17.20;;;;;;;10.46;100.00;99562.31;8288844;28;20045;-65
2022/04/05 04:03:17;;;;;;;25.83;16.80;;;;;;;10.45;100.00;99555.22;8291904;28;20403;-65
2022/04/05 04:07:17;;;;;;;25.27;15.93;;;;;;;10.46;100.00;99551.50;8291054;28;20053;-65
2022/04/05 04:11:18;;;;;;;27.50;16.23;;;;;;;10.47;100.00;99552.34;8287077;28;20046;-65
2022/04/05 04:15:19;;;;;;;27.38;16.40;;;;;;;10.47;100.00;99546.97;8286953;28;20052;-65
2022/04/05 04:19:20;;;;;;;28.98;16.92;;;;;;;10.49;100.00;99562.00;8289597;28;20576;-65
2022/04/05 04:23:20;;;;;;;28.42;16.40;;;;;;;10.45;100.00;99568.72;8290644;28;20617;-65
2022/04/05 04:27:20;;;;;;;29.48;16.88;;;;;;;10.47;100.00;99560.47;8285943;28;20132;-65
2022/04/05 04:31:21;;;;;;;36.75;19.75;;;;;;;10.49;100.00;99562.00;8284581;28;20124;-65
2022/04/05 04:35:21;;;;;;;32.35;17.60;;;;;;;10.50;100.00;99558.28;8285232;28;20064;-65
2022/04/05 04:39:22;;;;;;;32.50;18.30;;;;;;;10.47;100.00;99563.16;8286136;28;20077;-65
2022/04/05 04:43:24;;;;;;;33.17;18.05;;;;;;;10.44;100.00;99567.06;8290471;28;20040;-65
2022/04/05 04:47:24;;;;;;;37.13;18.40;;;;;;;10.44;100.00;99568.91;8287223;28;20038;-65
2022/04/05 04:51:25;;;;;;;31.70;18.38;;;;;;;10.43;100.00;99568.03;8287104;28;20038;-65
2022/04/05 04:55:25;;;;;;;35.15;18.48;;;;;;;10.43;100.00;99567.22;8286794;28;20509;-65
2022/04/05 04:59:26;;;;;;;35.95;19.42;;;;;;;10.45;100.00;99581.38;8286246;28;20072;-65
2022/04/05 05:03:26;;;;;;;36.53;19.23;;;;;;;10.44;100.00;99579.72;8283046;28;20045;-65
2022/04/05 05:07:29;;;;;;;38.30;20.27;;;;;;;10.41;100.00;99578.19;8284409;28;20529;-65
2022/04/05 05:11:29;;;;;;;35.95;19.38;;;;;;;10.42;100.00;99576.31;8282088;28;20049;-65
2022/04/05 05:15:30;;;;;;;36.55;20.38;;;;;;;10.42;100.00;99582.56;8292799;28;20029;-65
2022/04/05 05:19:30;;;;;;;31.83;19.08;;;;;;;10.45;100.00;99582.25;8286990;28;20030;-65
2022/04/05 05:23:31;;;;;;;34.08;19.02;;;;;;;10.45;100.00;99582.25;8282732;28;20132;-65
2022/04/05 05:27:31;;;;;;;34.53;19.45;;;;;;;10.48;100.00;99584.63;8273944;28;20144;-65
2022/04/05 05:31:32;;;;;;;34.40;19.33;;;;;;;10.48;100.00;99584.63;8320650;28;20556;-65
2022/04/05 05:35:33;;;;;;;32.17;18.58;;;;;;;10.52;100.00;99591.38;8315643;28;20063;-65
2022/04/05 05:39:33;;;;;;;34.00;19.10;;;;;;;10.51;100.00;99597.81;8302487;28;20045;-65
2022/04/05 05:43:34;;;;;;;30.20;17.83;;;;;;;10.51;100.00;99591.53;8317281;28;20076;-65
2022/04/05 05:47:35;;;;;;;35.88;18.45;;;;;;;10.50;100.00;99601.53;8317426;28;20029;-65
2022/04/05 05:51:35;;;;;;;31.23;17.48;;;;;;;10.57;100.00;99594.47;8298190;28;20245;-65
2022/04/05 05:55:36;;;;;;;32.33;17.80;;;;;;;10.57;100.00;99590.91;8288679;28;20056;-65
2022/04/05 05:59:36;;;;;;;29.65;17.23;;;;;;;10.59;100.00;99595.16;8288479;28;20045;-65
2022/04/05 06:03:36;;;;;;;27.58;17.38;;;;;;;10.64;100.00;99598.19;8289103;28;20140;-65
2022/04/05 06:07:37;;;;;;;28.38;16.50;;;;;;;10.65;100.00;99597.19;8289268;28;20045;-65
2022/04/05 06:11:37;;;;;;;30.85;16.65;;;;;;;10.66;100.00;99601.59;8288420;28;20040;-65
2022/04/05 06:15:38;;;;;;;30.40;16.08;;;;;;;10.68;100.00;99607.69;8288574;28;20034;-65
2022/04/05 06:19:38;;;;;;;29.85;16.80;;;;;;;10.70;100.00;99597.53;8289257;28;20058;-65
2022/04/05 06:23:39;;;;;;;29.35;15.93;;;;;;;10.75;100.00;99610.56;8289141;28;20044;-65
2022/04/05 06:27:40;;;;;;;32.95;16.65;;;;;;;10.79;100.00;99620.88;8280335;28;20033;-65
2022/04/05 06:31:40;;;;;;;31.67;16.67;;;;;;;10.78;100.00;99619.22;8288520;28;20517;-65
2022/04/05 06:35:43;;;;;;;25.42;14.70;;;;;;;10.79;100.00;99623.59;8288540;28;20161;-65
2022/04/05 06:39:44;;;;;;;27.98;15.88;;;;;;;10.81;100.00;99620.72;8287882;28;20589;-65
2022/04/05 06:43:44;;;;;;;27.92;16.70;;;;;;;10.79;100.00;99626.28;8287169;28;20387;-65
2022/04/05 06:47:45;;;;;;;30.52;16.75;;;;;;;10.80;100.00;99630.69;8288597;28;20064;-65
2022/04/05 06:51:46;;;;;;;25.15;14.95;;;;;;;10.81;100.00;99636.94;8288121;28;20048;-65
2022/04/05 06:55:46;;;;;;;28.92;16.48;;;;;;;10.81;100.00;99636.94;8286751;28;20125;-66
2022/04/05 06:59:46;;;;;;;29.05;17.15;;;;;;;10.80;100.00;99643.38;8288292;28;20068;-66
2022/04/05 07:03:47;;;;;;;30.65;16.90;;;;;;;10.85;100.00;99635.59;8287887;28;20042;-66
2022/04/05 07:07:47;;;;;;;30.35;17.42;;;;;;;10.83;100.00;99635.75;8287713;28;20034;-66
2022/04/05 07:11:49;;;;;;;30.98;17.90;;;;;;;10.82;100.00;99644.88;8288385;28;20034;-66
2022/04/05 07:15:49;;;;;;;30.55;16.63;;;;;;;10.83;100.00;99651.16;8286609;28;20037;-66
2022/04/05 07:19:49;;;;;;;32.17;16.83;;;;;;;10.82;100.00;99658.41;8288458;28;20129;-66
2022/04/05 07:23:50;;;;;;;35.67;15.45;;;;;;;10.82;100.00;99650.31;8287879;28;20074;-66
2022/04/05 07:27:51;;;;;;;23.95;13.70;;;;;;;10.80;100.00;99649.59;8291036;28;20402;-66
2022/04/05 07:31:51;;;;;;;25.02;13.85;;;;;;;10.81;100.00;99648.63;8293750;28;20549;-66
2022/04/05 07:35:52;;;;;;;25.23;13.35;;;;;;;10.77;100.00;99649.94;8293872;28;20072;-66
2022/04/05 07:39:52;;;;;;;26.17;13.38;;;;;;;10.79;100.00;99650.63;8293135;28;20399;-65
2022/04/05 07:43:53;;;;;;;27.73;13.10;;;;;;;10.85;100.00;99643.72;8294011;28;20041;-65
2022/04/05 07:47:53;;;;;;;23.67;13.15;;;;;;;10.85;100.00;99644.56;8292895;28;20510;-66
2022/04/05 07:51:53;;;;;;;24.40;13.57;;;;;;;10.93;100.00;99654.56;8294508;28;20053;-66
2022/04/05 07:55:56;;;;;;;25.92;13.68;;;;;;;11.01;100.00;99651.91;8292711;28;20280;-65
2022/04/05 07:59:58;;;;;;;24.05;13.10;;;;;;;11.03;100.00;99652.56;8293936;28;20112;-65
2022/04/05 08:03:59;;;;;;;24.70;14.02;;;;;;;11.05;100.00;99650.56;8292167;28;20052;-65
2022/04/05 08:08:00;;;;;;;22.08;13.65;;;;;;;11.03;100.00;99658.81;8291861;28;20030;-66
2022/04/05 08:12:00;;;;;;;27.85;15.45;;;;;;;11.10;100.00;99654.44;8292550;28;20553;-66
2022/04/05 08:16:00;;;;;;;22.02;13.82;;;;;;;11.14;100.00;99655.81;8290941;28;20060;-66
2022/04/05 08:20:01;;;;;;;24.17;14.25;;;;;;;11.27;100.00;99664.31;8293488;28;20034;-66
2022/04/05 08:24:02;;;;;;;23.67;14.25;;;;;;;11.32;100.00;99663.81;8291539;28;20096;-66
2022/04/05 08:28:03;;;;;;;24.90;15.38;;;;;;;11.35;100.00;99668.88;8292307;28;20034;-66
2022/04/05 08:32:04;;;;;;;27.63;15.98;;;;;;;11.36;100.00;99670.56;8291642;28;20499;-66
2022/04/05 08:36:05;;;;;;;25.92;17.27;;;;;;;11.39;100.00;99676.50;8291628;28;20496;-66
2022/04/05 08:40:07;;;;;;;27.90;17.52;;;;;;;11.56;100.00;99675.50;8291802;28;20092;-66
2022/04/05 08:44:08;;;;;;;29.98;18.40;;;;;;;11.64;100.00;99680.97;8285688;28;20557;-66
2022/04/05 08:48:12;;;;;;;27.35;17.83;;;;;;;11.80;100.00;99675.56;8291011;28;20184;-66
2022/04/05 08:52:13;;;;;;;28.80;16.70;;;;;;;11.99;100.00;99684.38;8291181;28;20061;-66
2022/04/05 08:56:15;;;;;;;27.23;17.50;;;;;;;12.32;100.00;99686.03;8290723;28;20056;-66
2022/04/05 09:00:22;;;;;;;26.35;17.10;;;;;;;12.62;100.00;99685.25;8290770;28;20034;-66
2022/04/05 09:04:23;;;;;;;21.08;14.95;;;;;;;12.73;100.00;99684.91;8290351;28;20038;-66
2022/04/05 09:08:25;;;;;;;20.88;15.10;;;;;;;12.77;100.00;99691.66;8290329;28;20057;-66
2022/04/05 09:12:28;;;;;;;20.05;12.95;;;;;;;12.50;100.00;99689.38;8290740;28;20033;-65
2022/04/05 09:16:31;;;;;;;20.77;13.25;;;;;;;12.38;100.00;99690.78;8290359;28;20037;-65
2022/04/05 09:20:44;;;;;;;19.25;13.40;;;;;;;12.21;100.00;99694.50;8290451;28;20068;-65
2022/04/05 09:24:44;;;;;;;19.35;14.07;;;;;;;12.11;100.00;99693.84;8288844;28;20046;-65
2022/04/05 09:28:47;;;;;;;21.83;14.45;;;;;;;11.94;100.00;99701.13;8289016;28;20147;-65
2022/04/05 09:32:48;;;;;;;24.85;17.33;;;;;;;11.85;100.00;99694.00;8289694;28;20087;-65
2022/04/05 09:36:51;;;;;;;25.75;17.70;;;;;;;11.80;100.00;99702.63;8290048;28;20054;-66
2022/04/05 09:40:52;;;;;;;29.30;18.63;;;;;;;11.71;100.00;99705.50;8283776;28;20065;-65
2022/04/05 09:44:52;;;;;;;29.25;18.08;;;;;;;11.63;100.00;99698.25;8289776;28;20076;-66
2022/04/05 09:49:06;;;;;;;27.67;18.90;;;;;;;11.65;100.00;99709.72;8287650;28;20065;-66
2022/04/05 09:53:07;;;;;;;31.00;19.00;;;;;;;11.65;100.00;99709.72;8289557;28;20040;-66
2022/04/05 09:57:07;;;;;;;27.10;17.67;;;;;;;11.62;100.00;99704.66;8287519;28;20053;-66
2022/04/05 10:01:10;;;;;;;24.15;16.45;;;;;;;11.65;100.00;99704.31;8289485;28;20042;-66
2022/04/05 10:05:11;;;;;;;27.50;16.90;;;;;;;11.75;100.00;99707.69;8289118;28;20037;-66
2022/04/05 10:09:13;;;;;;;22.65;14.55;;;;;;;11.83;100.00;99707.72;8289371;28;20046;-66
2022/04/05 10:13:14;;;;;;;17.63;12.32;;;;;;;12.03;100.00;99710.94;8289384;28;20068;-66
2022/04/05 10:17:15;;;;;;;19.08;13.00;;;;;;;12.22;100.00;99716.00;8288397;28;20043;-66
2022/04/05 10:21:16;;;;;;;18.80;12.20;;;;;;;12.54;100.00;99717.84;8289507;28;20038;-66
2022/04/05 10:25:16;;;;;;;15.88;11.48;;;;;;;12.69;100.00;99713.41;8288338;28;20042;-66
2022/04/05 10:29:19;;;;;;;13.23;10.45;;;;;;;12.73;100.00;99714.72;8288674;28;20513;-66
2022/04/05 10:33:26;;;;;;;15.38;11.48;;;;;;;12.85;100.00;99716.91;8288622;28;20509;-66
2022/04/05 10:37:36;;;;;;;15.20;10.50;;;;;;;13.19;100.00;99713.91;8288489;28;20260;-66
2022/04/05 10:41:37;;;;;;;15.10;11.13;;;;;;;13.50;100.00;99722.91;8271366;28;20042;-66
2022/04/05 10:45:43;;;;;;;12.93;9.50;;;;;;;13.64;100.00;99711.28;8288437;28;20053;-66
2022/04/05 10:49:47;;;;;;;11.95;9.20;;;;;;;13.40;100.00;99714.16;8270113;28;20499;-66
2022/04/05 10:54:19;;;;;;;12.27;9.68;;;;;;;13.40;100.00;99711.44;8287605;28;20030;-66
2022/04/05 10:58:10;;;;;;;11.43;9.90;;;;;;;13.56;100.00;99712.19;8288208;28;20108;-65
2022/04/05 11:11:13;;;;;;;14.77;11.70;;;;;;;13.19;100.00;99713.91;8351901;27;20696;-66
2022/04/05 11:15:15;;;;;;;13.38;11.98;;;;;;;13.20;100.00;99710.16;8348971;28;20345;-64
2022/04/05 11:19:15;;;;;;;14.13;11.68;;;;;;;13.40;100.00;99711.44;8349798;28;20043;-64
2022/04/05 11:23:17;;;;;;;14.73;11.57;;;;;;;13.42;100.00;99702.06;8389239;28;20034;-64
2022/04/05 11:32:08;;;;;;;11.10;9.77;;;;;;;13.95;100.00;99700.34;8394165;27;20993;-64
2022/04/05 11:36:13;;;;;;;10.75;9.60;;;;;;;14.14;100.00;99698.00;8377389;28;20044;-64
2022/04/05 11:40:14;;;;;;;8.95;8.07;;;;;;;13.85;100.00;99700.63;8368658;28;20067;-64
2022/04/05 11:44:15;;;;;;;9.48;8.30;;;;;;;13.82;100.00;99700.97;8381516;28;20390;-64
2022/04/05 11:48:17;;;;;;;8.50;7.70;;;;;;;13.76;100.00;99696.28;8379430;28;20037;-64
2022/04/05 11:52:28;;;;;;;12.27;8.18;;;;;;;13.80;100.00;99697.59;8379068;28;20080;-64
2022/04/05 11:56:28;;;;;;;10.50;7.65;;;;;;;13.86;100.00;99696.88;8380460;28;20056;-64
2022/04/05 12:00:29;;;;;;;8.35;7.53;;;;;;;13.98;100.00;99689.13;8380436;28;20043;-65
2022/04/05 12:04:32;;;;;;;8.65;7.32;;;;;;;14.05;100.00;99688.22;8380863;28;20065;-65
2022/04/05 12:08:33;;;;;;;8.30;6.80;;;;;;;14.09;100.00;99697.69;8380095;28;20464;-65
2022/04/05 12:12:33;;;;;;;7.93;7.13;;;;;;;13.82;100.00;99695.56;8380191;28;20049;-65
2022/04/05 12:16:56;;;;;;;11.23;7.70;;;;;;;13.66;100.00;99690.22;8379884;28;20041;-65
2022/04/05 12:21:00;;;;;;;10.38;8.50;;;;;;;13.46;100.00;99695.28;8380082;28;20035;-65
2022/04/05 12:25:01;;;;;;;;;;;;;;;13.17;100.00;99700.53;8379188;28;20520;-65
2022/04/05 12:29:01;;;;;;;12.90;9.13;;;;;;;12.96;100.00;99702.13;8379150;28;20004;-65
2022/04/05 12:33:03;;;;;;;12.15;9.00;;;;;;;13.05;100.00;99695.69;8379819;28;20294;-65
2022/04/05 12:37:07;;;;;;;10.75;8.43;;;;;;;13.10;100.00;99693.25;8379089;28;20174;-65
2022/04/05 12:41:13;;;;;;;11.20;9.40;;;;;;;12.93;100.00;99703.31;8368147;28;20452;-65
2022/04/05 12:45:14;;;;;;;14.07;10.57;;;;;;;13.05;100.00;99695.69;8355818;28;20555;-65
2022/04/05 12:49:38;;;;;;;15.40;11.13;;;;;;;13.08;100.00;99701.56;8357607;28;20037;-65
2022/04/05 12:53:39;;;;;;;17.33;10.85;;;;;;;13.05;100.00;99696.50;8355549;28;20072;-65
2022/04/05 12:57:46;;;;;;;19.55;11.55;;;;;;;12.96;100.00;99696.69;8356942;28;20051;-65
2022/04/05 13:01:56;;;;;;;16.25;11.45;;;;;;;12.90;100.00;99694.69;8356955;28;20040;-65
2022/04/05 13:06:28;;;;;;;14.75;10.07;;;;;;;12.68;100.00;99681.84;8355029;28;20044;-65
2022/04/05 13:10:17;;;;;;;11.50;8.10;;;;;;;12.41;100.00;99693.13;8356010;28;20037;-65
2022/04/05 13:14:19;;;;;;;9.88;7.40;;;;;;;12.33;100.00;99677.72;8356510;28;20047;-65
2022/04/05 13:18:19;;;;;;;14.05;8.60;;;;;;;12.38;100.00;99680.75;8353585;28;20356;-65
2022/04/05 13:22:20;;;;;;;11.82;8.88;;;;;;;12.44;100.00;99679.25;8338467;28;20128;-65
2022/04/05 13:26:23;;;;;;;13.07;10.05;;;;;;;12.44;100.00;99692.78;8355798;28;20052;-65
2022/04/05 13:30:23;;;;;;;14.55;9.93;;;;;;;12.51;100.00;99686.50;8356031;28;20481;-64
2022/04/05 13:34:25;;;;;;;14.77;10.02;;;;;;;12.59;100.00;99688.34;8355932;28;20033;-65
2022/04/05 13:38:26;;;;;;;16.08;10.82;;;;;;;12.81;100.00;99680.28;8355648;28;20037;-65
2022/04/05 13:42:27;;;;;;;13.27;10.30;;;;;;;13.05;100.00;99679.41;8354002;28;20037;-65
2022/04/05 13:46:29;;;;;;;14.85;10.43;;;;;;;13.12;100.00;99681.19;8355168;28;20075;-65
2022/04/05 13:50:30;;;;;;;11.93;9.35;;;;;;;13.22;100.00;99681.00;8355058;28;20574;-65
2022/04/05 13:54:31;;;;;;;11.85;8.05;;;;;;;13.16;100.00;99673.56;8352368;28;20064;-65
2022/04/05 13:58:32;;;;;;;11.80;8.52;;;;;;;13.03;100.00;99670.56;8352894;28;20032;-65
2022/04/05 14:02:32;;;;;;;10.32;7.25;;;;;;;12.90;100.00;99675.69;8354547;28;20049;-65
2022/04/05 14:06:35;;;;;;;9.77;7.60;;;;;;;12.90;100.00;99670.28;8354488;28;20172;-65
2022/04/05 14:10:35;;;;;;;9.02;6.60;;;;;;;12.73;100.00;99674.06;8353771;28;20128;-66
2022/04/05 14:14:36;;;;;;;8.48;7.20;;;;;;;12.76;100.00;99671.84;8354211;28;20040;-66
2022/04/05 14:18:38;;;;;;;28.08;12.65;;;;;;;12.72;100.00;99667.78;8353081;28;20029;-65
2022/04/05 14:22:38;;;;;;;9.40;7.25;;;;;;;12.93;100.00;99659.06;8352541;28;20103;-65
2022/04/05 14:26:38;;;;;;;11.40;8.05;;;;;;;13.00;100.00;99654.66;8353900;28;20116;-65
2022/04/05 14:30:40;;;;;;;11.35;7.18;;;;;;;12.97;100.00;99654.97;8354092;28;20040;-65
2022/04/05 14:34:40;;;;;;;10.68;8.15;;;;;;;12.97;100.00;99654.97;8350455;28;20521;-65
2022/04/05 14:38:41;;;;;;;13.85;8.00;;;;;;;13.00;100.00;99655.50;8353578;28;20033;-65
2022/04/05 14:42:42;;;;;;;10.57;7.70;;;;;;;13.17;100.00;99645.38;8353397;28;20041;-65
2022/04/05 14:46:42;;;;;;;10.52;7.38;;;;;;;13.34;100.00;99638.84;8364662;28;20061;-65
2022/04/05 14:50:44;;;;;;;8.55;6.80;;;;;;;13.34;100.00;99639.69;8351479;28;20389;-65
2022/04/05 14:54:45;;;;;;;7.22;6.30;;;;;;;13.30;100.00;99640.25;8353192;28;20045;-65
2022/04/05 14:58:45;;;;;;;7.60;6.35;;;;;;;13.27;100.00;99640.59;8333277;28;20074;-65
2022/04/05 15:02:46;;;;;;;7.80;6.45;;;;;;;13.24;100.00;99638.25;8358922;28;20114;-66
2022/04/05 15:06:46;;;;;;;8.50;5.75;;;;;;;13.28;100.00;99645.00;8348599;28;20459;-65
2022/04/05 15:10:47;;;;;;;5.68;5.10;;;;;;;13.36;100.00;99639.53;8337355;28;20358;-66
2022/04/05 15:14:47;;;;;;;7.72;5.35;;;;;;;13.45;100.00;99635.72;8347144;28;20053;-66
2022/04/05 15:18:48;;;;;;;5.63;4.38;;;;;;;13.60;100.00;99631.19;8345910;28;20052;-65
2022/04/05 15:22:50;;;;;;;5.95;4.70;;;;;;;13.64;100.00;99644.22;8379281;28;20497;-65
2022/04/05 15:26:50;;;;;;;6.53;4.78;;;;;;;13.67;100.00;99624.84;8347086;28;20478;-65
2022/04/05 15:30:51;;;;;;;6.43;4.90;;;;;;;13.86;100.00;99631.66;8345621;28;20045;-65
2022/04/05 15:34:51;;;;;;;6.30;4.82;;;;;;;13.79;100.00;99625.28;8347373;28;20037;-65
2022/04/05 15:38:52;;;;;;;7.03;5.20;;;;;;;13.68;100.00;99633.84;8347822;28;20217;-65
2022/04/05 15:42:52;;;;;;;6.55;5.05;;;;;;;13.65;100.00;99628.78;8347509;28;20041;-65
2022/04/05 15:46:53;;;;;;;7.07;4.75;;;;;;;13.74;100.00;99628.53;8347248;28;20497;-65
2022/04/05 15:50:54;;;;;;;6.95;4.80;;;;;;;13.80;100.00;99629.66;8347236;28;20577;-65
2022/04/05 15:54:56;;;;;;;6.45;4.47;;;;;;;13.81;100.00;99625.91;8347243;28;21166;-65
2022/04/05 15:58:57;;;;;;;4.97;4.47;;;;;;;13.72;100.00;99635.16;8345838;28;20033;-65
2022/04/05 16:02:58;;;;;;;6.82;4.50;;;;;;;13.66;100.00;99631.31;8345702;28;20515;-65
2022/04/05 16:07:00;;;;;;;5.63;4.90;;;;;;;13.70;100.00;99631.81;8346392;28;20128;-65
2022/04/05 16:11:01;;;;;;;6.60;4.60;;;;;;;13.79;100.00;99631.53;8346633;28;20037;-65
2022/04/05 16:15:03;;;;;;;7.95;5.07;;;;;;;13.88;100.00;99640.47;8346670;28;20126;-65
2022/04/05 16:19:04;;;;;;;6.05;4.88;;;;;;;13.87;100.00;99638.78;8352745;28;20041;-65
2022/04/05 16:23:05;;;;;;;8.55;5.47;;;;;;;13.75;100.00;99648.38;8351323;28;20041;-65
2022/04/05 16:27:06;;;;;;;5.93;5.32;;;;;;;13.66;100.00;99638.59;8331691;28;20536;-65
2022/04/05 16:31:07;;;;;;;5.65;5.05;;;;;;;13.60;100.00;99636.59;8338519;28;20528;-66
2022/04/05 16:35:10;;;;;;;6.10;5.40;;;;;;;13.53;100.00;99624.78;8341830;28;20049;-66
2022/04/05 16:39:10;;;;;;;7.60;6.18;;;;;;;13.53;100.00;99635.66;8331020;28;20052;-66
2022/04/05 16:43:11;;;;;;;9.77;6.72;;;;;;;13.45;100.00;99635.72;8351238;28;20049;-66
2022/04/05 16:47:11;;;;;;;13.57;9.00;;;;;;;13.38;100.00;99634.75;8350560;28;20545;-66
2022/04/05 16:51:12;;;;;;;17.42;10.60;;;;;;;13.36;100.00;99624.06;8344894;28;20501;-66
2022/04/05 16:55:12;;;;;;;17.02;12.30;;;;;;;13.31;100.00;99634.63;8349905;28;20364;-66
2022/04/05 16:59:13;;;;;;;15.68;11.27;;;;;;;13.29;100.00;99633.09;8352596;28;20048;-66
2022/04/05 17:03:13;;;;;;;17.75;12.05;;;;;;;13.27;100.00;99627.03;8336772;28;20051;-66
2022/04/05 17:07:14;;;;;;;16.73;11.40;;;;;;;13.26;100.00;99628.03;8350663;28;20480;-66
2022/04/05 17:11:16;;;;;;;18.55;11.32;;;;;;;13.26;100.00;99634.31;8351468;28;20490;-66
2022/04/05 17:15:19;;;;;;;17.15;11.63;;;;;;;13.20;100.00;99624.16;8348598;28;20033;-66
2022/04/05 17:19:19;;;;;;;14.98;10.43;;;;;;;13.18;100.00;99626.22;8344548;28;20433;-66
2022/04/05 17:23:21;;;;;;;18.50;12.65;;;;;;;13.07;100.00;99621.22;8347642;28;20040;-66
2022/04/05 17:27:21;;;;;;;21.98;12.35;;;;;;;12.93;100.00;99621.09;8350852;28;20041;-65
2022/04/05 17:31:22;;;;;;;19.88;12.82;;;;;;;12.87;100.00;99610.94;8348141;28;20091;-65
2022/04/05 17:35:22;;;;;;;18.10;11.30;;;;;;;12.86;100.00;99609.22;8351190;28;20527;-65
2022/04/05 17:39:23;;;;;;;17.58;11.65;;;;;;;12.84;100.00;99605.88;8350068;28;20051;-65
2022/04/05 17:43:23;;;;;;;17.20;11.32;;;;;;;12.77;100.00;99599.44;8350392;28;20057;-65
2022/04/05 17:47:24;;;;;;;16.70;11.25;;;;;;;12.81;100.00;99609.75;8330016;28;20153;-65
2022/04/05 17:51:25;;;;;;;17.38;10.70;;;;;;;12.88;100.00;99602.63;8350766;28;20521;-65
2022/04/05 17:55:25;;;;;;;19.02;11.40;;;;;;;12.91;100.00;99598.72;8346681;28;20492;-65
2022/04/05 17:59:26;;;;;;;17.23;9.98;;;;;;;12.93;100.00;99593.97;8348176;28;20037;-65
2022/04/05 18:03:30;;;;;;;15.75;9.82;;;;;;;12.89;100.00;99592.59;8345306;28;20509;-65
2022/04/05 18:07:30;;;;;;;20.17;11.32;;;;;;;12.88;100.00;99585.50;8345566;28;20037;-65
2022/04/05 18:11:33;;;;;;;13.52;9.27;;;;;;;12.87;100.00;99584.66;8345032;28;20045;-65
2022/04/05 18:15:34;;;;;;;14.48;8.80;;;;;;;12.96;100.00;99588.19;8346914;28;20171;-65
2022/04/05 18:19:34;;;;;;;13.50;8.15;;;;;;;12.97;100.00;99595.28;8348951;28;20071;-65
2022/04/05 18:23:36;;;;;;;14.48;8.45;;;;;;;12.98;100.00;99602.38;8349471;28;20041;-65
2022/04/05 18:27:37;;;;;;;15.52;9.85;;;;;;;12.93;100.00;99599.38;8349308;28;20434;-65
2022/04/05 18:31:37;;;;;;;16.73;9.32;;;;;;;12.95;100.00;99613.59;8346885;28;22059;-65
2022/04/05 18:35:38;;;;;;;14.18;9.15;;;;;;;12.89;100.00;99615.16;8348491;28;20045;-65
2022/04/05 18:39:39;;;;;;;14.10;9.23;;;;;;;12.80;100.00;99599.09;8347695;28;20464;-65
2022/04/05 18:43:39;;;;;;;16.60;10.95;;;;;;;12.69;100.00;99610.34;8347545;28;20520;-65